Time;durP1;ratioP1;P1;durP2;ratioP2;P2;SDS_P1;SDS_P2;PMS_P1;PMS_P2;Temp;Humidity;BMP_temperature;BMP_pressure;BME280_temperature;BME280_humidity;BME280_pressure;Samples;Min_cycle;Max_cycle;Signal;HPM_P1;HPM_P2
2022/08/09 00:00:18;;;;;;;15.02;10.68;;;;;;;;;;4247603;33;20113;-67
2022/08/09 00:02:44;;;;;;;18.27;10.40;;;;;;;;;;4247899;33;20542;-72
2022/08/09 00:33:33;;;;;;;10.25;8.75;;;;;;;;;;4988898;27;20122;-83
2022/08/09 00:36:00;;;;;;;12.40;8.80;;;;;;;;;;4244690;33;20124;-83
2022/08/09 00:38:26;;;;;;;13.75;8.82;;;;;;;;;;4234865;33;20129;-85
2022/08/09 00:40:52;;;;;;;12.63;9.93;;;;;;;;;;4245523;33;20096;-86
2022/08/09 00:43:22;;;;;;;11.32;8.60;;;;;;;;;;4245132;33;20124;-79
2022/08/09 00:45:48;;;;;;;12.00;9.20;;;;;;;;;;4245924;33;20521;-69
2022/08/09 00:48:14;;;;;;;14.40;7.97;;;;;;;;;;4247641;33;20120;-70
2022/08/09 00:50:41;;;;;;;13.85;8.77;;;;;;;;;;4257652;33;20120;-69
2022/08/09 00:53:07;;;;;;;16.05;9.65;;;;;;;;;;4247028;33;20113;-69
2022/08/09 00:55:34;;;;;;;13.98;8.20;;;;;;;;;;4245959;33;20211;-69
2022/08/09 00:58:00;;;;;;;11.50;8.45;;;;;;;;;;4245843;33;20100;-69
2022/08/09 01:00:26;;;;;;;12.45;8.10;;;;;;;;;;4247434;33;20437;-83
2022/08/09 01:03:15;;;;;;;10.15;8.70;;;;;;;;;;4246170;33;20097;-82
2022/08/09 01:05:44;;;;;;;13.40;9.10;;;;;;;;;;4247207;33;20484;-83
2022/08/09 01:08:21;;;;;;;10.43;7.25;;;;;;;;;;4246179;33;20551;-84
2022/08/09 01:10:50;;;;;;;12.27;8.27;;;;;;;;;;4246134;33;20077;-83
2022/08/09 01:13:29;;;;;;;12.95;8.40;;;;;;;;;;4246160;33;20513;-83
2022/08/09 01:15:55;;;;;;;11.82;8.90;;;;;;;;;;4247429;33;20085;-83
2022/08/09 01:18:28;;;;;;;14.98;8.90;;;;;;;;;;4233839;33;20526;-85
2022/08/09 01:21:10;;;;;;;9.93;8.27;;;;;;;;;;4245738;33;20529;-83
2022/08/09 01:23:39;;;;;;;11.45;8.68;;;;;;;;;;4234107;33;20108;-84
2022/08/09 01:26:40;;;;;;;18.92;7.82;;;;;;;;;;4247634;33;20109;-85
2022/08/09 01:29:08;;;;;;;10.73;8.95;;;;;;;;;;4232008;33;20619;-83
2022/08/09 01:31:36;;;;;;;18.50;8.60;;;;;;;;;;4245385;33;20115;-83
2022/08/09 01:34:03;;;;;;;12.57;8.85;;;;;;;;;;4245601;33;20086;-81
2022/08/09 01:36:30;;;;;;;10.00;8.43;;;;;;;;;;4245301;33;20109;-79
2022/08/09 01:38:58;;;;;;;21.08;8.60;;;;;;;;;;4245770;33;20092;-80
2022/08/09 01:41:30;;;;;;;13.55;7.95;;;;;;;;;;4246683;33;20107;-80
2022/08/09 01:44:01;;;;;;;12.25;9.32;;;;;;;;;;4244922;33;20121;-80
2022/08/09 01:46:39;;;;;;;14.50;8.43;;;;;;;;;;4234368;33;20132;-82
2022/08/09 01:49:25;;;;;;;11.77;8.07;;;;;;;;;;4245700;33;20196;-77
2022/08/09 01:51:54;;;;;;;11.57;8.30;;;;;;;;;;4245443;33;20432;-75
2022/08/09 01:54:29;;;;;;;12.60;7.90;;;;;;;;;;4245434;33;20113;-75
2022/08/09 01:56:55;;;;;;;16.48;8.20;;;;;;;;;;4245554;33;20127;-75
2022/08/09 01:59:22;;;;;;;11.07;7.90;;;;;;;;;;4245365;33;20093;-75
2022/08/09 02:01:52;;;;;;;17.30;8.18;;;;;;;;;;4245463;33;20099;-75
2022/08/09 02:04:20;;;;;;;17.15;8.23;;;;;;;;;;4245317;33;20108;-75
2022/08/09 02:09:33;;;;;;;10.55;7.97;;;;;;;;;;4245565;33;20195;-75
2022/08/09 02:12:00;;;;;;;12.80;8.77;;;;;;;;;;4245049;33;20115;-75
2022/08/09 02:14:27;;;;;;;15.30;8.90;;;;;;;;;;4233290;33;20124;-74
2022/08/09 02:16:54;;;;;;;14.07;8.50;;;;;;;;;;4245115;33;20175;-75
2022/08/09 02:19:21;;;;;;;12.73;9.07;;;;;;;;;;4245379;33;20093;-75
2022/08/09 02:21:51;;;;;;;14.27;8.73;;;;;;;;;;4244962;33;20545;-75
2022/08/09 02:24:24;;;;;;;16.42;8.63;;;;;;;;;;4245027;33;20546;-75
2022/08/09 02:26:54;;;;;;;15.38;8.35;;;;;;;;;;4244898;33;20203;-75
2022/08/09 02:29:23;;;;;;;11.77;9.02;;;;;;;;;;4244979;33;20531;-75
2022/08/09 02:31:50;;;;;;;10.90;8.27;;;;;;;;;;4245013;33;20120;-75
2022/08/09 02:34:18;;;;;;;11.43;7.95;;;;;;;;;;4245006;33;20093;-80
2022/08/09 02:36:49;;;;;;;11.73;8.38;;;;;;;;;;4245076;33;20120;-80
2022/08/09 02:39:19;;;;;;;15.35;9.18;;;;;;;;;;4219321;33;20131;-79
2022/08/09 02:41:50;;;;;;;23.40;10.55;;;;;;;;;;4232313;33;20110;-80
2022/08/09 02:44:19;;;;;;;11.45;8.07;;;;;;;;;;4230794;33;20144;-75
2022/08/09 02:46:49;;;;;;;10.40;8.85;;;;;;;;;;4231026;33;20112;-71
2022/08/09 02:49:17;;;;;;;14.77;8.55;;;;;;;;;;4232279;33;20121;-77
2022/08/09 02:51:46;;;;;;;13.68;8.60;;;;;;;;;;4243278;33;20129;-77
2022/08/09 02:54:13;;;;;;;13.18;9.98;;;;;;;;;;4244244;33;20128;-78
2022/08/09 02:56:41;;;;;;;12.88;10.02;;;;;;;;;;4246120;33;20108;-78
2022/08/09 02:59:08;;;;;;;10.73;8.85;;;;;;;;;;4246890;33;20626;-78
2022/08/09 03:01:35;;;;;;;14.85;9.25;;;;;;;;;;4246590;33;20133;-78
2022/08/09 03:04:02;;;;;;;12.98;10.00;;;;;;;;;;4246758;33;20563;-78
2022/08/09 03:06:28;;;;;;;13.93;10.02;;;;;;;;;;4246960;33;20119;-76
2022/08/09 03:08:54;;;;;;;13.98;9.27;;;;;;;;;;4246844;33;20119;-78
2022/08/09 03:11:22;;;;;;;16.62;9.60;;;;;;;;;;4246933;33;20105;-76
2022/08/09 03:13:48;;;;;;;14.80;9.82;;;;;;;;;;4246643;33;20135;-77
2022/08/09 03:16:18;;;;;;;12.57;9.23;;;;;;;;;;4246026;33;20279;-76
2022/08/09 03:18:46;;;;;;;14.57;9.85;;;;;;;;;;4246590;33;20758;-73
2022/08/09 03:21:14;;;;;;;17.75;10.13;;;;;;;;;;4246674;33;20101;-73
2022/08/09 03:23:45;;;;;;;13.55;9.57;;;;;;;;;;4247355;33;20123;-71
2022/08/09 03:26:18;;;;;;;16.98;10.55;;;;;;;;;;4244472;33;20127;-70
2022/08/09 03:28:46;;;;;;;12.95;9.80;;;;;;;;;;4242093;33;20116;-67
2022/08/09 03:31:13;;;;;;;13.40;10.70;;;;;;;;;;4242899;33;20101;-68
2022/08/09 03:33:39;;;;;;;14.25;9.65;;;;;;;;;;4233666;33;20128;-73
2022/08/09 03:36:06;;;;;;;15.60;9.98;;;;;;;;;;4234772;33;20097;-74
2022/08/09 03:38:37;;;;;;;16.92;10.25;;;;;;;;;;4248065;33;20109;-73
2022/08/09 03:41:03;;;;;;;17.83;10.32;;;;;;;;;;4246723;33;20115;-74
2022/08/09 03:43:29;;;;;;;12.25;9.95;;;;;;;;;;4244054;33;20295;-73
2022/08/09 03:45:55;;;;;;;17.27;10.02;;;;;;;;;;4238417;33;20490;-73
2022/08/09 03:48:22;;;;;;;18.73;9.75;;;;;;;;;;4232418;33;20095;-73
2022/08/09 03:50:49;;;;;;;15.90;10.18;;;;;;;;;;4220864;33;20109;-73
2022/08/09 03:53:15;;;;;;;16.67;10.00;;;;;;;;;;4235214;33;20139;-73
2022/08/09 03:55:42;;;;;;;16.52;11.55;;;;;;;;;;4246545;33;20104;-73
2022/08/09 03:58:08;;;;;;;11.27;8.80;;;;;;;;;;4246292;33;20517;-73
2022/08/09 04:00:34;;;;;;;17.45;10.38;;;;;;;;;;4247712;33;20101;-73
2022/08/09 04:03:00;;;;;;;16.23;9.68;;;;;;;;;;4245212;33;20180;-71
2022/08/09 04:05:26;;;;;;;15.90;10.85;;;;;;;;;;4240018;33;20120;-70
2022/08/09 04:07:52;;;;;;;17.08;9.38;;;;;;;;;;4231400;33;20101;-71
2022/08/09 04:10:21;;;;;;;16.10;10.23;;;;;;;;;;4241362;33;20204;-72
2022/08/09 04:12:52;;;;;;;17.55;9.75;;;;;;;;;;4247478;33;20111;-70
2022/08/09 04:15:23;;;;;;;12.10;9.90;;;;;;;;;;4247451;33;20543;-78
2022/08/09 04:17:49;;;;;;;16.23;10.70;;;;;;;;;;4246823;33;20203;-70
2022/08/09 04:20:16;;;;;;;11.30;8.93;;;;;;;;;;4245468;33;20205;-71
2022/08/09 04:22:43;;;;;;;20.50;9.75;;;;;;;;;;4244605;33;20120;-69
2022/08/09 04:25:09;;;;;;;16.10;10.98;;;;;;;;;;4246725;33;20184;-71
2022/08/09 04:27:40;;;;;;;16.10;9.70;;;;;;;;;;4246394;33;20103;-74
2022/08/09 04:30:09;;;;;;;21.25;10.18;;;;;;;;;;4245352;33;20120;-71
2022/08/09 04:32:35;;;;;;;16.02;10.02;;;;;;;;;;4245078;33;20131;-71
2022/08/09 04:35:01;;;;;;;15.95;9.60;;;;;;;;;;4247392;33;20114;-71
2022/08/09 04:37:27;;;;;;;12.25;9.75;;;;;;;;;;4247399;33;20117;-71
2022/08/09 04:39:53;;;;;;;11.93;9.88;;;;;;;;;;4247278;33;20112;-69
2022/08/09 04:42:19;;;;;;;13.88;10.93;;;;;;;;;;4247372;33;20207;-71
2022/08/09 04:44:45;;;;;;;16.12;9.80;;;;;;;;;;4247375;33;20204;-71
2022/08/09 04:47:11;;;;;;;15.35;10.55;;;;;;;;;;4247335;33;20124;-70
2022/08/09 04:49:37;;;;;;;16.37;10.27;;;;;;;;;;4245866;33;20120;-68
2022/08/09 04:52:04;;;;;;;17.35;10.98;;;;;;;;;;4245715;33;20100;-68
2022/08/09 04:54:31;;;;;;;17.17;10.40;;;;;;;;;;4247064;33;20204;-68
2022/08/09 04:56:57;;;;;;;17.10;10.65;;;;;;;;;;4245820;33;20097;-67
2022/08/09 04:59:23;;;;;;;18.77;10.23;;;;;;;;;;4234080;33;20537;-67
2022/08/09 05:01:49;;;;;;;21.00;10.20;;;;;;;;;;4247390;33;20120;-66
2022/08/09 05:04:15;;;;;;;15.07;9.57;;;;;;;;;;4247044;33;20128;-67
2022/08/09 05:06:42;;;;;;;16.50;9.90;;;;;;;;;;4246935;33;20203;-67
2022/08/09 05:09:08;;;;;;;11.12;9.18;;;;;;;;;;4246969;33;20124;-68
2022/08/09 05:11:33;;;;;;;16.45;9.68;;;;;;;;;;4246986;33;20192;-67
2022/08/09 05:13:59;;;;;;;14.90;8.98;;;;;;;;;;4245844;33;20115;-68
2022/08/09 05:16:25;;;;;;;15.77;9.15;;;;;;;;;;4247124;33;20536;-67
2022/08/09 05:18:51;;;;;;;12.32;8.32;;;;;;;;;;4247071;33;20219;-67
2022/08/09 05:21:18;;;;;;;17.02;9.32;;;;;;;;;;4247405;33;20123;-66
2022/08/09 05:23:44;;;;;;;12.48;9.48;;;;;;;;;;4245787;33;20159;-66
2022/08/09 05:26:10;;;;;;;11.93;9.48;;;;;;;;;;4247088;33;20105;-68
2022/08/09 05:28:36;;;;;;;18.48;9.88;;;;;;;;;;4245849;33;20232;-67
2022/08/09 05:31:03;;;;;;;13.48;9.18;;;;;;;;;;4245804;33;20135;-65
2022/08/09 05:33:29;;;;;;;16.42;9.60;;;;;;;;;;4245886;33;20100;-65
2022/08/09 05:35:55;;;;;;;11.10;8.68;;;;;;;;;;4245843;33;20116;-62
2022/08/09 05:38:22;;;;;;;18.30;9.60;;;;;;;;;;4245378;33;20514;-64
2022/08/09 05:40:48;;;;;;;12.40;9.20;;;;;;;;;;4246877;33;20115;-64
2022/08/09 05:43:14;;;;;;;14.18;9.85;;;;;;;;;;4246671;33;20135;-65
2022/08/09 05:45:40;;;;;;;17.90;8.65;;;;;;;;;;4246501;33;20125;-65
2022/08/09 05:48:06;;;;;;;14.32;8.77;;;;;;;;;;4246800;33;20120;-63
2022/08/09 05:50:32;;;;;;;13.50;9.23;;;;;;;;;;4257154;33;20107;-63
2022/08/09 05:52:58;;;;;;;16.62;8.70;;;;;;;;;;4244241;33;20595;-64
2022/08/09 05:55:25;;;;;;;14.00;9.77;;;;;;;;;;4245696;33;20081;-63
2022/08/09 05:57:51;;;;;;;15.52;10.93;;;;;;;;;;4245011;33;20103;-68
2022/08/09 06:00:17;;;;;;;21.27;10.57;;;;;;;;;;4246634;33;20187;-67
2022/08/09 06:02:43;;;;;;;17.42;11.10;;;;;;;;;;4233395;33;20125;-66
2022/08/09 06:05:10;;;;;;;14.40;10.13;;;;;;;;;;4232729;33;20240;-66
2022/08/09 06:07:36;;;;;;;11.23;9.07;;;;;;;;;;4232488;33;20108;-65
2022/08/09 06:10:03;;;;;;;10.63;9.07;;;;;;;;;;4231008;33;20096;-71
2022/08/09 06:12:30;;;;;;;13.32;8.65;;;;;;;;;;4230653;33;20121;-67
2022/08/09 06:14:56;;;;;;;14.52;8.82;;;;;;;;;;4233137;33;20114;-70
2022/08/09 06:17:22;;;;;;;16.62;8.90;;;;;;;;;;4232394;33;20121;-68
2022/08/09 06:19:48;;;;;;;15.10;10.10;;;;;;;;;;4236073;33;20081;-66
2022/08/09 06:22:15;;;;;;;15.13;9.13;;;;;;;;;;4221372;33;20101;-69
2022/08/09 06:24:41;;;;;;;13.10;8.77;;;;;;;;;;4246685;33;20124;-67
2022/08/09 06:27:07;;;;;;;15.95;8.63;;;;;;;;;;4221587;33;20173;-67
2022/08/09 06:29:33;;;;;;;16.92;8.55;;;;;;;;;;4246126;33;20209;-66
2022/08/09 06:31:59;;;;;;;12.37;9.60;;;;;;;;;;4244460;33;20104;-66
2022/08/09 06:34:25;;;;;;;11.88;8.93;;;;;;;;;;4244968;33;20192;-66
2022/08/09 06:36:51;;;;;;;12.77;8.13;;;;;;;;;;4246343;33;20119;-67
2022/08/09 06:39:17;;;;;;;13.93;9.07;;;;;;;;;;4246408;33;20109;-66
2022/08/09 06:41:43;;;;;;;13.00;8.32;;;;;;;;;;4246363;33;20199;-66
2022/08/09 06:44:13;;;;;;;15.00;8.35;;;;;;;;;;4246240;33;20223;-67
2022/08/09 06:46:40;;;;;;;20.70;7.12;;;;;;;;;;4246204;33;20108;-67
2022/08/09 06:49:06;;;;;;;16.15;8.07;;;;;;;;;;4246240;33;20198;-67
2022/08/09 06:51:34;;;;;;;19.20;8.30;;;;;;;;;;4244694;33;20119;-67
2022/08/09 06:54:01;;;;;;;13.27;7.95;;;;;;;;;;4245970;33;20472;-67
2022/08/09 06:56:27;;;;;;;13.05;7.75;;;;;;;;;;4246281;33;20117;-67
2022/08/09 06:58:53;;;;;;;12.00;7.35;;;;;;;;;;4246001;33;20266;-67
2022/08/09 07:01:19;;;;;;;13.52;7.32;;;;;;;;;;4244812;33;20194;-67
2022/08/09 07:03:45;;;;;;;6.87;6.12;;;;;;;;;;4246268;33;20437;-67
2022/08/09 07:06:12;;;;;;;6.57;5.82;;;;;;;;;;4246113;33;20112;-68
2022/08/09 07:08:38;;;;;;;10.30;6.57;;;;;;;;;;4244734;33;20202;-72
2022/08/09 07:11:05;;;;;;;9.82;6.05;;;;;;;;;;4256390;33;20528;-72
2022/08/09 07:13:31;;;;;;;8.93;6.75;;;;;;;;;;4244376;33;20270;-70
2022/08/09 07:15:57;;;;;;;8.55;6.00;;;;;;;;;;4231367;33;20121;-69
2022/08/09 07:18:23;;;;;;;10.55;6.15;;;;;;;;;;4221244;33;20105;-67
2022/08/09 07:20:51;;;;;;;10.98;7.43;;;;;;;;;;4210525;33;20116;-66
2022/08/09 07:23:18;;;;;;;7.90;5.43;;;;;;;;;;4212714;33;20089;-68
2022/08/09 07:25:46;;;;;;;9.95;6.53;;;;;;;;;;4218892;33;20133;-67
2022/08/09 07:28:12;;;;;;;8.40;6.28;;;;;;;;;;4238173;33;20091;-67
2022/08/09 07:30:39;;;;;;;9.57;6.00;;;;;;;;;;4256420;33;20527;-67
2022/08/09 07:33:05;;;;;;;8.73;5.65;;;;;;;;;;4225859;33;20118;-67
2022/08/09 07:35:31;;;;;;;7.22;5.43;;;;;;;;;;4230019;33;20136;-67
2022/08/09 07:37:57;;;;;;;12.57;5.65;;;;;;;;;;4222307;33;20107;-65
2022/08/09 07:40:24;;;;;;;10.82;5.40;;;;;;;;;;4230444;33;20560;-65
2022/08/09 07:42:58;;;;;;;7.15;5.90;;;;;;;;;;4231807;33;20516;-69
2022/08/09 07:45:25;;;;;;;7.70;5.70;;;;;;;;;;4244407;33;20109;-72
2022/08/09 07:47:55;;;;;;;8.50;5.70;;;;;;;;;;4232218;33;20112;-65
2022/08/09 07:50:23;;;;;;;5.97;4.55;;;;;;;;;;4233733;33;20204;-70
2022/08/09 07:52:49;;;;;;;7.55;5.20;;;;;;;;;;4230904;33;20109;-72
2022/08/09 07:55:16;;;;;;;11.52;6.15;;;;;;;;;;4244634;33;20542;-73
2022/08/09 07:57:44;;;;;;;7.10;5.40;;;;;;;;;;4247745;33;20219;-72
2022/08/09 08:00:11;;;;;;;13.10;5.57;;;;;;;;;;4247889;33;20132;-72
2022/08/09 08:02:37;;;;;;;7.15;5.50;;;;;;;;;;4247664;33;20117;-72
2022/08/09 08:05:03;;;;;;;7.43;5.82;;;;;;;;;;4253810;33;20121;-72
2022/08/09 08:07:29;;;;;;;10.05;5.82;;;;;;;;;;4243310;33;20465;-74
2022/08/09 08:09:55;;;;;;;9.27;5.68;;;;;;;;;;4243374;33;20124;-74
2022/08/09 08:12:21;;;;;;;8.75;5.15;;;;;;;;;;4243123;33;20116;-71
2022/08/09 08:14:47;;;;;;;7.53;4.97;;;;;;;;;;4243656;33;20121;-73
2022/08/09 08:17:13;;;;;;;10.20;6.37;;;;;;;;;;4245833;33;20132;-72
2022/08/09 08:19:39;;;;;;;7.47;5.40;;;;;;;;;;4242867;33;20124;-71
2022/08/09 08:22:05;;;;;;;11.70;5.75;;;;;;;;;;4244493;33;20620;-71
2022/08/09 08:24:31;;;;;;;8.60;5.35;;;;;;;;;;4244274;33;20133;-73
2022/08/09 08:26:57;;;;;;;7.18;5.18;;;;;;;;;;4254877;33;20143;-69
2022/08/09 08:29:24;;;;;;;5.60;4.70;;;;;;;;;;4244617;33;20133;-80
2022/08/09 08:31:51;;;;;;;8.52;5.78;;;;;;;;;;4243034;33;20672;-74
2022/08/09 08:34:17;;;;;;;8.57;5.55;;;;;;;;;;4243840;33;20457;-73
2022/08/09 08:36:43;;;;;;;7.60;5.10;;;;;;;;;;4246103;33;20211;-69
2022/08/09 08:39:10;;;;;;;9.07;5.20;;;;;;;;;;4247581;33;20116;-70
2022/08/09 08:41:37;;;;;;;9.02;5.40;;;;;;;;;;4245962;33;20093;-69
2022/08/09 08:44:03;;;;;;;12.68;5.93;;;;;;;;;;4246086;33;20123;-68
2022/08/09 08:46:39;;;;;;;9.65;5.40;;;;;;;;;;4247428;33;20135;-67
2022/08/09 08:49:09;;;;;;;11.55;5.25;;;;;;;;;;4247142;33;20099;-65
2022/08/09 08:51:35;;;;;;;8.10;5.85;;;;;;;;;;4247342;33;20211;-66
2022/08/09 08:54:05;;;;;;;7.18;5.40;;;;;;;;;;4246799;33;20124;-66
2022/08/09 08:56:35;;;;;;;9.73;5.00;;;;;;;;;;4247305;33;20096;-64
2022/08/09 08:59:07;;;;;;;9.70;5.18;;;;;;;;;;4247180;33;20102;-65
2022/08/09 09:01:35;;;;;;;5.90;5.20;;;;;;;;;;4247340;33;20195;-65
2022/08/09 09:04:08;;;;;;;5.18;4.10;;;;;;;;;;4247268;33;20105;-65
2022/08/09 09:06:36;;;;;;;5.68;4.75;;;;;;;;;;4247291;33;20131;-66
2022/08/09 09:09:04;;;;;;;10.88;5.80;;;;;;;;;;4247191;33;20199;-65
2022/08/09 09:11:30;;;;;;;5.10;4.60;;;;;;;;;;4247113;33;20092;-64
2022/08/09 09:13:57;;;;;;;8.43;4.70;;;;;;;;;;4247248;33;20477;-65
2022/08/09 09:16:31;;;;;;;7.30;5.75;;;;;;;;;;4246965;33;20191;-65
2022/08/09 09:19:02;;;;;;;7.47;5.78;;;;;;;;;;4247262;33;20215;-65
2022/08/09 09:21:28;;;;;;;7.62;5.65;;;;;;;;;;4247153;33;20128;-65
2022/08/09 09:23:54;;;;;;;8.05;5.32;;;;;;;;;;4246838;33;20137;-65
2022/08/09 09:26:22;;;;;;;6.78;4.60;;;;;;;;;;4247018;33;20112;-65
2022/08/09 09:28:48;;;;;;;5.82;5.22;;;;;;;;;;4246904;33;20121;-65
2022/08/09 09:31:18;;;;;;;5.57;5.00;;;;;;;;;;4247082;33;20120;-65
2022/08/09 09:33:44;;;;;;;6.20;5.37;;;;;;;;;;4246622;33;20220;-65
2022/08/09 09:36:12;;;;;;;8.35;4.90;;;;;;;;;;4247033;33;20104;-65
2022/08/09 09:38:55;;;;;;;9.73;5.25;;;;;;;;;;4246680;33;20103;-65
2022/08/09 09:41:27;;;;;;;8.50;5.75;;;;;;;;;;4257399;33;20188;-66
2022/08/09 09:43:57;;;;;;;6.22;4.57;;;;;;;;;;4246743;33;20116;-66
2022/08/09 09:46:40;;;;;;;4.80;4.20;;;;;;;;;;4246923;33;20204;-65
2022/08/09 09:49:11;;;;;;;6.05;5.28;;;;;;;;;;4246699;33;20136;-66
2022/08/09 09:51:39;;;;;;;11.65;4.97;;;;;;;;;;4246867;33;20121;-65
2022/08/09 09:54:14;;;;;;;5.37;4.80;;;;;;;;;;4246590;33;20196;-66
2022/08/09 09:56:42;;;;;;;5.65;5.07;;;;;;;;;;4246878;33;20123;-69
2022/08/09 09:59:09;;;;;;;11.40;5.70;;;;;;;;;;4246856;33;20143;-68
2022/08/09 10:01:36;;;;;;;6.80;4.95;;;;;;;;;;4246908;33;20096;-68
2022/08/09 10:04:02;;;;;;;6.32;5.05;;;;;;;;;;4246637;33;20112;-68
2022/08/09 10:06:38;;;;;;;6.20;4.90;;;;;;;;;;4246214;33;20129;-67
2022/08/09 10:09:04;;;;;;;5.30;4.68;;;;;;;;;;4233646;33;20123;-67
2022/08/09 10:11:32;;;;;;;7.85;5.20;;;;;;;;;;4245573;33;20110;-66
2022/08/09 10:13:58;;;;;;;12.48;4.85;;;;;;;;;;4246395;33;20125;-66
2022/08/09 10:16:30;;;;;;;7.45;5.50;;;;;;;;;;4246602;33;20101;-71
2022/08/09 10:18:59;;;;;;;11.07;4.78;;;;;;;;;;4245542;33;20136;-71
2022/08/09 10:21:25;;;;;;;6.57;5.00;;;;;;;;;;4246740;33;20508;-71
2022/08/09 10:23:52;;;;;;;8.30;5.30;;;;;;;;;;4245130;33;20135;-71
2022/08/09 10:26:20;;;;;;;6.22;4.90;;;;;;;;;;4245229;33;20121;-73
2022/08/09 10:28:46;;;;;;;12.05;5.28;;;;;;;;;;4246494;33;20112;-70
2022/08/09 10:31:13;;;;;;;5.80;4.97;;;;;;;;;;4257026;33;20116;-70
2022/08/09 10:33:40;;;;;;;8.60;6.57;;;;;;;;;;4244827;33;20150;-71
2022/08/09 10:36:08;;;;;;;6.78;5.57;;;;;;;;;;4246507;33;20109;-68
2022/08/09 10:38:35;;;;;;;7.68;5.72;;;;;;;;;;4246320;33;20179;-69
2022/08/09 10:41:01;;;;;;;7.37;4.15;;;;;;;;;;4246439;33;20108;-70
2022/08/09 10:43:27;;;;;;;8.63;5.62;;;;;;;;;;4245042;33;20216;-70
2022/08/09 10:45:53;;;;;;;7.43;4.57;;;;;;;;;;4256817;33;20536;-72
2022/08/09 10:48:32;;;;;;;5.18;4.68;;;;;;;;;;4256610;33;20121;-71
2022/08/09 10:51:43;;;;;;;7.50;5.90;;;;;;;;;;4245238;33;20155;-69
2022/08/09 10:54:11;;;;;;;9.70;6.07;;;;;;;;;;4215166;34;20120;-69
2022/08/09 10:56:39;;;;;;;7.87;6.22;;;;;;;;;;4192823;34;20624;-68
2022/08/09 10:59:27;;;;;;;8.98;5.90;;;;;;;;;;4231857;33;20189;-68
2022/08/09 11:01:53;;;;;;;9.65;6.25;;;;;;;;;;4246254;33;20088;-69
2022/08/09 11:04:27;;;;;;;9.32;6.28;;;;;;;;;;4244475;33;20112;-67
2022/08/09 11:06:59;;;;;;;9.15;6.72;;;;;;;;;;4246206;33;20108;-71
2022/08/09 11:09:37;;;;;;;23.80;14.00;;;;;;;;;;4246093;33;20093;-71
2022/08/09 11:12:10;;;;;;;12.77;8.57;;;;;;;;;;4244573;33;20167;-69
2022/08/09 11:14:43;;;;;;;12.20;7.50;;;;;;;;;;4246125;33;20180;-70
2022/08/09 11:17:15;;;;;;;12.75;7.12;;;;;;;;;;4247226;33;20120;-68
2022/08/09 11:19:54;;;;;;;9.65;7.12;;;;;;;;;;4246667;33;20108;-68
2022/08/09 11:22:43;;;;;;;12.02;7.18;;;;;;;;;;4248178;33;20134;-71
2022/08/09 11:25:14;;;;;;;11.27;7.12;;;;;;;;;;4243887;33;20113;-66
2022/08/09 11:27:41;;;;;;;10.43;6.80;;;;;;;;;;4258536;33;20215;-68
2022/08/09 11:30:09;;;;;;;14.23;7.55;;;;;;;;;;4246791;33;20093;-68
2022/08/09 11:32:42;;;;;;;11.20;7.18;;;;;;;;;;4247949;33;20140;-68
2022/08/09 11:35:26;;;;;;;7.62;6.80;;;;;;;;;;4247945;33;20136;-68
2022/08/09 11:37:57;;;;;;;17.27;7.53;;;;;;;;;;4248234;33;20120;-68
2022/08/09 11:40:30;;;;;;;17.05;6.65;;;;;;;;;;4246694;33;20106;-69
2022/08/09 11:42:58;;;;;;;9.52;6.47;;;;;;;;;;4247879;33;20097;-70
2022/08/09 11:45:37;;;;;;;10.85;6.78;;;;;;;;;;4246381;33;20582;-70
2022/08/09 11:48:19;;;;;;;10.85;6.68;;;;;;;;;;4258220;33;20124;-69
2022/08/09 11:50:57;;;;;;;8.55;6.93;;;;;;;;;;4247892;33;20108;-73
2022/08/09 11:53:26;;;;;;;12.10;6.87;;;;;;;;;;4257849;33;20119;-69
2022/08/09 11:55:54;;;;;;;7.62;6.45;;;;;;;;;;4247832;33;20108;-70
2022/08/09 11:58:21;;;;;;;12.88;7.53;;;;;;;;;;4257942;33;20224;-69
2022/08/09 12:00:59;;;;;;;11.12;7.57;;;;;;;;;;4247795;33;20104;-70
2022/08/09 12:03:27;;;;;;;11.63;8.00;;;;;;;;;;4246486;33;20126;-70
2022/08/09 12:05:58;;;;;;;10.77;6.50;;;;;;;;;;4248027;33;20116;-72
2022/08/09 12:08:25;;;;;;;18.08;6.90;;;;;;;;;;4247401;33;20125;-72
2022/08/09 12:10:54;;;;;;;8.75;6.82;;;;;;;;;;4246501;33;20109;-73
2022/08/09 12:13:29;;;;;;;7.90;6.85;;;;;;;;;;4245836;33;20511;-71
2022/08/09 12:16:30;;;;;;;10.52;6.65;;;;;;;;;;4247894;33;20163;-71
2022/08/09 12:18:56;;;;;;;11.55;6.45;;;;;;;;;;4245947;33;20524;-72
2022/08/09 12:21:24;;;;;;;9.60;7.18;;;;;;;;;;4247595;33;20599;-71
2022/08/09 12:23:52;;;;;;;8.98;6.80;;;;;;;;;;4247566;33;20089;-69
2022/08/09 12:26:18;;;;;;;9.10;6.57;;;;;;;;;;4247489;33;20124;-72
2022/08/09 12:28:49;;;;;;;10.60;6.72;;;;;;;;;;4246706;33;20124;-73
2022/08/09 12:31:18;;;;;;;9.48;7.12;;;;;;;;;;4257834;33;20438;-71
2022/08/09 12:33:44;;;;;;;14.13;6.97;;;;;;;;;;4247211;33;20168;-73
2022/08/09 12:36:10;;;;;;;12.50;6.82;;;;;;;;;;4247331;33;20146;-73
2022/08/09 12:38:36;;;;;;;8.45;6.90;;;;;;;;;;4257770;33;20133;-72
2022/08/09 12:41:02;;;;;;;8.75;6.55;;;;;;;;;;4254655;33;20667;-73
2022/08/09 12:43:29;;;;;;;9.57;6.40;;;;;;;;;;4244369;33;20583;-70
2022/08/09 12:45:57;;;;;;;6.32;5.62;;;;;;;;;;4243915;33;20113;-70
2022/08/09 12:48:23;;;;;;;9.48;6.50;;;;;;;;;;4241573;33;20192;-72
2022/08/09 12:50:50;;;;;;;11.27;7.45;;;;;;;;;;4253154;33;20112;-73
2022/08/09 12:53:36;;;;;;;18.25;6.93;;;;;;;;;;4243332;33;20116;-71
2022/08/09 12:56:14;;;;;;;9.27;6.87;;;;;;;;;;4257924;33;20126;-70
2022/08/09 12:58:42;;;;;;;8.98;6.07;;;;;;;;;;4247221;33;20128;-74
2022/08/09 13:01:22;;;;;;;14.30;6.65;;;;;;;;;;4245815;33;20096;-73
2022/08/09 13:04:02;;;;;;;8.45;5.93;;;;;;;;;;4257779;33;20442;-71
2022/08/09 13:06:35;;;;;;;11.57;6.00;;;;;;;;;;4257473;33;20109;-71
2022/08/09 13:09:10;;;;;;;9.57;5.97;;;;;;;;;;4245933;33;20095;-69
2022/08/09 13:11:37;;;;;;;;;;;;;;;;;;4247601;33;20548;-70
2022/08/09 13:14:07;;;;;;;6.07;5.40;;;;;;;;;;4247056;33;19972;-73
2022/08/09 13:16:51;;;;;;;10.27;5.43;;;;;;;;;;4245932;33;20100;-71
2022/08/09 13:19:29;;;;;;;6.60;5.43;;;;;;;;;;4247095;33;20239;-71
2022/08/09 13:22:14;;;;;;;7.53;5.87;;;;;;;;;;4245720;33;20457;-71
2022/08/09 13:24:48;;;;;;;10.03;5.37;;;;;;;;;;4244151;33;20130;-70
2022/08/09 13:27:28;;;;;;;6.90;5.35;;;;;;;;;;4247043;33;20093;-74
2022/08/09 13:29:57;;;;;;;7.10;5.93;;;;;;;;;;4247003;33;20095;-70
2022/08/09 13:32:24;;;;;;;8.90;5.35;;;;;;;;;;4245536;33;20119;-69
2022/08/09 13:34:50;;;;;;;5.95;5.25;;;;;;;;;;4244282;33;20117;-70
2022/08/09 13:37:16;;;;;;;10.93;6.00;;;;;;;;;;4246875;33;20216;-70
2022/08/09 13:39:43;;;;;;;8.20;5.72;;;;;;;;;;4257420;33;20112;-71
2022/08/09 13:42:12;;;;;;;6.75;4.07;;;;;;;;;;4246524;33;20092;-71
2022/08/09 13:44:39;;;;;;;6.30;4.30;;;;;;;;;;4246658;33;20122;-71
2022/08/09 13:47:11;;;;;;;4.50;3.92;;;;;;;;;;4245944;33;20517;-70
2022/08/09 13:49:38;;;;;;;5.20;4.35;;;;;;;;;;4244251;33;20121;-71
2022/08/09 13:52:05;;;;;;;36.58;5.85;;;;;;;;;;4244119;33;20540;-71
2022/08/09 13:54:31;;;;;;;5.30;4.47;;;;;;;;;;4246436;33;20097;-71
2022/08/09 13:56:57;;;;;;;4.68;3.55;;;;;;;;;;4246621;33;20115;-72
2022/08/09 13:59:23;;;;;;;2.83;2.45;;;;;;;;;;4246700;33;20107;-68
2022/08/09 14:01:49;;;;;;;2.28;2.08;;;;;;;;;;4247052;33;20104;-69
2022/08/09 14:04:15;;;;;;;12.02;5.93;;;;;;;;;;4246780;33;20105;-68
2022/08/09 14:06:41;;;;;;;5.62;4.37;;;;;;;;;;4246678;33;20199;-70
2022/08/09 14:09:08;;;;;;;6.00;4.53;;;;;;;;;;4246652;33;20111;-71
2022/08/09 14:11:34;;;;;;;7.30;5.50;;;;;;;;;;4233540;33;20093;-70
2022/08/09 14:14:00;;;;;;;6.05;5.03;;;;;;;;;;4246569;33;20112;-71
2022/08/09 14:16:27;;;;;;;7.82;5.93;;;;;;;;;;4244946;33;20218;-70
2022/08/09 14:18:53;;;;;;;8.77;5.07;;;;;;;;;;4245985;33;20135;-70
2022/08/09 14:21:21;;;;;;;3.25;2.80;;;;;;;;;;4246292;33;20198;-71
2022/08/09 14:23:49;;;;;;;5.87;4.12;;;;;;;;;;4245049;33;20216;-74
2022/08/09 14:26:17;;;;;;;10.70;6.18;;;;;;;;;;4243629;33;20124;-69
2022/08/09 14:28:43;;;;;;;4.25;3.58;;;;;;;;;;4244973;33;20115;-68
2022/08/09 14:31:09;;;;;;;2.97;2.62;;;;;;;;;;4233409;33;20136;-68
2022/08/09 14:33:38;;;;;;;6.60;4.55;;;;;;;;;;4246924;33;20100;-67
2022/08/09 14:36:05;;;;;;;2.40;2.20;;;;;;;;;;4244703;33;20206;-67
2022/08/09 14:38:31;;;;;;;6.95;4.93;;;;;;;;;;4245060;33;20112;-68
2022/08/09 14:40:57;;;;;;;8.80;6.28;;;;;;;;;;4245885;33;20505;-69
2022/08/09 14:43:23;;;;;;;9.45;4.93;;;;;;;;;;4246487;33;20108;-70
2022/08/09 14:45:49;;;;;;;3.10;2.80;;;;;;;;;;4244184;33;20124;-68
2022/08/09 14:48:18;;;;;;;9.13;5.25;;;;;;;;;;4230763;33;20200;-71
2022/08/09 14:50:46;;;;;;;6.00;4.47;;;;;;;;;;4232430;33;20497;-70
2022/08/09 14:53:13;;;;;;;7.82;5.95;;;;;;;;;;4232255;33;20196;-75
2022/08/09 14:55:40;;;;;;;7.72;6.00;;;;;;;;;;4245522;33;20108;-73
2022/08/09 14:58:07;;;;;;;14.38;5.10;;;;;;;;;;4244584;33;20092;-72
2022/08/09 15:00:34;;;;;;;9.23;5.47;;;;;;;;;;4242018;33;20176;-67
2022/08/09 15:03:08;;;;;;;7.72;5.68;;;;;;;;;;4219208;33;20552;-66
2022/08/09 15:05:35;;;;;;;6.10;5.47;;;;;;;;;;4234464;33;20121;-67
2022/08/09 15:08:01;;;;;;;9.38;5.47;;;;;;;;;;4219817;33;20085;-69
2022/08/09 15:10:28;;;;;;;14.87;5.47;;;;;;;;;;4229682;33;20219;-70
2022/08/09 15:12:55;;;;;;;8.20;5.93;;;;;;;;;;4217591;33;20120;-71